PHL weather

Philadelphia International Airport
Philadelphia, Pennsylvania, United States

Public forecast

Using degrees Fahrenheit for public forecast. Weather courtesy of forecast.io.

METAR (pilot weather report)

Report is more than 6 hours old.

Retrieved 2017/05/23 23:54 UTC (1 day ago):

KPHL 242354Z 10012KT 10SM BKN041 OVC250 18/11 A2978 RMK AO2 SLP083 T01780106 10222 20178 53008 $

TAF (pilot weather forecast)

Forecast is more than 12 hours old.

Retrieved 2017/05/24 00:27 UTC (1 day ago):

TAF KPHL 242320Z 2500/2606 09012KT P6SM OVC050 FM250300 09010KT P6SM OVC015 FM250500 07012G18KT P6SM BKN008 OVC015 FM250900 07015G25KT 3SM SHRA BR OVC005 TEMPO 2511/2515 1SM SHRA OVC003 FM251500 12007KT 5SM -SHRA OVC008 FM251800 16007KT P6SM OVC008 FM252200 18007KT P6SM OVC015 PROB30 2522/2524 4SM TSRA BKN015CB FM260100 23006KT P6SM BKN040